Time;durP1;ratioP1;P1;durP2;ratioP2;P2;SDS_P1;SDS_P2;PMS_P1;PMS_P2;Temp;Humidity;BMP_temperature;BMP_pressure;BME280_temperature;BME280_humidity;BME280_pressure;Samples;Min_cycle;Max_cycle;Signal;HPM_P1;HPM_P2
2023/08/03 00:00:46;;;;;;;2.78;0.85;;;16.10;99.90;;;;;;4957089;28;20110;-66
2023/08/03 00:03:12;;;;;;;3.60;1.58;;;16.20;99.90;;;;;;4954933;28;20051;-64
2023/08/03 00:05:37;;;;;;;5.30;0.98;;;16.10;99.90;;;;;;4952470;28;20054;-64
2023/08/03 00:08:03;;;;;;;6.28;0.88;;;16.20;99.90;;;;;;4954707;28;20086;-65
2023/08/03 00:10:29;;;;;;;3.13;0.80;;;16.10;99.90;;;;;;4955032;28;20465;-65
2023/08/03 00:12:54;;;;;;;3.97;1.00;;;16.10;99.90;;;;;;4949970;29;20386;-65
2023/08/03 00:15:20;;;;;;;6.72;1.42;;;16.10;99.90;;;;;;4943909;28;20027;-65
2023/08/03 00:17:46;;;;;;;5.82;1.42;;;16.10;99.90;;;;;;4950608;29;20027;-65
2023/08/03 00:20:11;;;;;;;4.50;1.38;;;16.10;99.90;;;;;;4950658;28;20477;-64
2023/08/03 00:22:37;;;;;;;8.60;1.15;;;16.10;99.90;;;;;;4943437;29;20424;-65
2023/08/03 00:25:03;;;;;;;2.90;1.02;;;16.00;99.90;;;;;;4954091;28;20024;-65
2023/08/03 00:27:29;;;;;;;3.67;1.00;;;16.00;99.90;;;;;;4940905;28;20075;-65
2023/08/03 00:29:55;;;;;;;2.35;0.80;;;16.00;99.90;;;;;;4954669;28;20066;-66
2023/08/03 00:32:21;;;;;;;1.50;0.88;;;16.00;99.90;;;;;;4947381;29;20063;-64
2023/08/03 00:34:47;;;;;;;4.55;0.98;;;15.90;99.90;;;;;;4953953;28;20023;-65
2023/08/03 00:37:13;;;;;;;3.28;1.02;;;15.90;99.90;;;;;;4948610;29;20102;-65
2023/08/03 00:39:39;;;;;;;3.67;0.95;;;15.90;99.90;;;;;;4929802;28;20071;-65
2023/08/03 00:42:05;;;;;;;4.82;1.33;;;15.90;99.90;;;;;;4947264;29;20071;-65
2023/08/03 00:44:31;;;;;;;1.95;0.80;;;15.90;99.90;;;;;;4950032;28;20505;-64
2023/08/03 00:46:56;;;;;;;3.17;0.77;;;15.90;99.90;;;;;;4948137;28;20059;-64
2023/08/03 00:49:27;;;;;;;1.30;0.82;;;15.90;99.90;;;;;;4949887;28;20186;-65
2023/08/03 00:51:54;;;;;;;6.03;0.90;;;15.90;99.90;;;;;;4943907;29;20477;-65
2023/08/03 00:54:20;;;;;;;2.60;0.88;;;15.90;99.90;;;;;;4940889;28;20124;-66
2023/08/03 00:56:46;;;;;;;3.60;0.82;;;16.00;99.90;;;;;;4952695;28;20023;-65
2023/08/03 00:59:11;;;;;;;4.63;0.75;;;15.90;99.90;;;;;;4952254;29;20031;-65
2023/08/03 01:01:38;;;;;;;3.03;1.35;;;15.90;99.90;;;;;;4949714;29;20031;-65
2023/08/03 01:04:04;;;;;;;3.38;0.90;;;16.00;99.90;;;;;;4950791;29;20085;-65
2023/08/03 01:06:29;;;;;;;2.35;0.93;;;16.00;99.90;;;;;;4947899;28;20036;-65
2023/08/03 01:08:57;;;;;;;3.80;0.68;;;16.00;99.90;;;;;;4950601;29;20035;-64
2023/08/03 01:11:23;;;;;;;3.22;1.40;;;16.10;99.90;;;;;;4951607;29;20517;-64
2023/08/03 01:13:49;;;;;;;1.65;0.75;;;16.10;99.90;;;;;;4950984;28;20118;-65
2023/08/03 01:16:15;;;;;;;3.95;1.00;;;16.10;99.90;;;;;;4950666;28;20508;-65
2023/08/03 01:18:42;;;;;;;0.90;0.60;;;16.10;99.90;;;;;;4945981;29;20042;-65
2023/08/03 01:21:09;;;;;;;5.15;0.70;;;16.00;99.90;;;;;;4944618;29;20019;-65
2023/08/03 01:23:35;;;;;;;2.33;0.70;;;16.10;99.90;;;;;;4944040;29;20039;-64
2023/08/03 01:26:00;;;;;;;2.13;0.88;;;16.10;99.90;;;;;;4944001;29;20091;-65
2023/08/03 01:28:26;;;;;;;2.17;0.60;;;16.10;99.90;;;;;;4947071;28;20834;-65
2023/08/03 01:30:52;;;;;;;2.53;0.80;;;16.20;99.90;;;;;;4937807;29;20637;-65
2023/08/03 01:33:18;;;;;;;1.85;0.75;;;16.20;99.90;;;;;;4943986;29;20027;-64
2023/08/03 01:35:44;;;;;;;2.33;0.88;;;16.20;99.90;;;;;;4939721;28;20054;-61
2023/08/03 01:38:12;;;;;;;3.47;0.70;;;16.20;99.90;;;;;;4941433;29;20087;-64
2023/08/03 01:40:38;;;;;;;1.20;0.70;;;16.20;99.90;;;;;;4945765;28;20030;-65
2023/08/03 01:43:03;;;;;;;1.40;1.00;;;16.20;99.90;;;;;;4940770;29;20396;-65
2023/08/03 01:45:29;;;;;;;1.80;0.98;;;16.10;99.90;;;;;;4947257;28;20579;-65
2023/08/03 01:47:55;;;;;;;1.48;0.77;;;16.10;99.90;;;;;;4935288;29;20031;-65
2023/08/03 01:50:20;;;;;;;5.03;0.93;;;16.20;99.90;;;;;;4944357;29;20043;-64
2023/08/03 01:52:48;;;;;;;1.48;0.70;;;16.20;99.90;;;;;;4940704;29;20034;-65
2023/08/03 01:55:14;;;;;;;0.57;0.50;;;16.20;99.90;;;;;;4946440;28;20032;-65
2023/08/03 01:57:39;;;;;;;4.03;0.90;;;16.20;99.90;;;;;;4950079;29;20106;-65
2023/08/03 02:00:05;;;;;;;3.67;0.75;;;16.20;99.90;;;;;;4949047;29;20080;-65
2023/08/03 02:02:31;;;;;;;3.30;1.92;;;16.10;99.90;;;;;;4949363;29;20058;-64
2023/08/03 02:04:56;;;;;;;4.88;0.80;;;16.00;99.90;;;;;;4951654;28;20066;-65
2023/08/03 02:07:43;;;;;;;1.25;0.95;;;16.00;99.90;;;;;;4945543;29;20036;-64
2023/08/03 02:10:10;;;;;;;3.35;0.70;;;15.90;99.90;;;;;;4949246;28;20034;-64
2023/08/03 02:12:36;;;;;;;0.93;0.60;;;15.90;99.90;;;;;;4949562;29;20035;-64
2023/08/03 02:15:02;;;;;;;3.10;1.02;;;15.80;99.90;;;;;;4950931;28;20038;-65
2023/08/03 02:17:28;;;;;;;4.22;0.73;;;15.80;99.90;;;;;;4947253;29;20114;-65
2023/08/03 02:19:55;;;;;;;4.65;1.00;;;15.80;99.90;;;;;;4946510;28;20469;-65
2023/08/03 02:22:20;;;;;;;2.30;1.02;;;15.80;99.90;;;;;;4948060;29;20062;-64
2023/08/03 02:24:46;;;;;;;0.98;0.47;;;15.80;99.90;;;;;;4945369;28;20059;-65
2023/08/03 02:27:11;;;;;;;3.13;0.70;;;15.70;99.90;;;;;;4940062;29;20039;-64
2023/08/03 02:29:37;;;;;;;5.80;1.38;;;15.70;99.90;;;;;;4943074;29;20371;-65
2023/08/03 02:32:03;;;;;;;0.68;0.65;;;15.80;99.90;;;;;;4945459;28;20059;-65
2023/08/03 02:34:28;;;;;;;1.33;0.80;;;15.70;99.90;;;;;;4947281;29;20039;-59
2023/08/03 02:36:54;;;;;;;2.78;1.00;;;15.80;99.90;;;;;;4940748;28;20710;-65
2023/08/03 02:39:19;;;;;;;4.25;0.73;;;15.80;99.90;;;;;;4957675;28;20043;-64
2023/08/03 02:41:45;;;;;;;1.30;0.50;;;15.90;99.90;;;;;;4949956;28;20482;-65
2023/08/03 02:44:10;;;;;;;7.95;0.93;;;15.90;99.90;;;;;;4947482;29;20453;-65
2023/08/03 02:46:36;;;;;;;1.98;0.70;;;15.80;99.90;;;;;;4947811;28;20054;-65
2023/08/03 02:49:01;;;;;;;0.82;0.70;;;15.80;99.90;;;;;;4941805;29;20031;-65
2023/08/03 02:51:27;;;;;;;1.15;0.50;;;15.90;99.90;;;;;;4944019;28;20119;-65
2023/08/03 02:53:53;;;;;;;2.28;0.60;;;15.80;99.90;;;;;;4945833;29;20520;-65
2023/08/03 02:56:18;;;;;;;0.50;0.43;;;15.90;99.90;;;;;;4931639;28;20109;-65
2023/08/03 02:58:44;;;;;;;1.67;0.70;;;15.80;99.90;;;;;;4948601;28;20127;-64
2023/08/03 03:01:09;;;;;;;0.85;0.80;;;15.80;99.90;;;;;;4960699;28;20023;-65
2023/08/03 03:03:35;;;;;;;2.20;0.75;;;15.90;99.90;;;;;;4943182;28;20560;-65
2023/08/03 03:06:00;;;;;;;4.22;1.00;;;15.90;99.90;;;;;;4955051;28;20429;-65
2023/08/03 03:08:26;;;;;;;2.05;1.02;;;15.90;99.90;;;;;;4954792;29;20042;-65
2023/08/03 03:10:51;;;;;;;1.20;0.75;;;15.90;99.90;;;;;;4953307;28;20031;-64
2023/08/03 03:13:17;;;;;;;0.85;0.82;;;15.90;99.90;;;;;;4952800;29;20031;-65
2023/08/03 03:15:43;;;;;;;1.75;0.70;;;15.90;99.90;;;;;;4959123;28;20039;-64
2023/08/03 03:18:08;;;;;;;1.80;0.60;;;15.90;99.90;;;;;;4953826;29;20039;-65
2023/08/03 03:20:34;;;;;;;0.93;0.60;;;15.90;99.90;;;;;;4959885;28;20133;-64
2023/08/03 03:22:59;;;;;;;1.02;0.80;;;15.90;99.90;;;;;;4939531;28;20034;-65
2023/08/03 03:25:25;;;;;;;1.02;0.60;;;15.90;99.90;;;;;;4954264;28;20027;-65
2023/08/03 03:27:50;;;;;;;1.27;0.70;;;15.90;99.90;;;;;;4948116;29;20397;-65
2023/08/03 03:30:16;;;;;;;4.57;0.70;;;15.90;99.90;;;;;;4949131;28;20402;-65
2023/08/03 03:32:43;;;;;;;1.85;0.70;;;15.90;99.90;;;;;;4957475;28;20030;-64
2023/08/03 03:35:09;;;;;;;1.20;0.45;;;15.90;99.90;;;;;;4967136;28;20023;-65
2023/08/03 03:37:34;;;;;;;0.68;0.55;;;16.00;99.90;;;;;;4946997;29;20449;-65
2023/08/03 03:40:00;;;;;;;0.65;0.60;;;16.00;99.90;;;;;;4949265;29;20031;-65
2023/08/03 03:42:25;;;;;;;0.55;0.45;;;16.00;99.90;;;;;;4952303;28;20028;-65
2023/08/03 03:44:51;;;;;;;0.68;0.55;;;16.00;99.90;;;;;;4949743;29;20059;-65
2023/08/03 03:47:16;;;;;;;0.73;0.55;;;16.00;99.90;;;;;;4941824;28;20038;-65
2023/08/03 03:49:42;;;;;;;1.23;0.63;;;16.00;99.90;;;;;;4940384;29;20106;-65
2023/08/03 03:52:08;;;;;;;0.57;0.55;;;16.00;99.90;;;;;;4947983;28;20047;-64
2023/08/03 03:54:34;;;;;;;0.77;0.65;;;16.00;99.90;;;;;;4945347;29;20062;-64
2023/08/03 03:57:00;;;;;;;0.93;0.60;;;15.90;99.90;;;;;;4929764;28;20054;-65
2023/08/03 03:59:26;;;;;;;1.20;0.70;;;15.90;99.90;;;;;;4941177;29;20503;-64
2023/08/03 04:01:52;;;;;;;0.57;0.50;;;15.80;99.90;;;;;;4950891;28;20122;-65
2023/08/03 04:04:17;;;;;;;0.50;0.50;;;15.70;99.90;;;;;;4949646;29;20023;-64
2023/08/03 04:06:43;;;;;;;0.63;0.25;;;15.60;99.90;;;;;;4950340;28;20059;-64
2023/08/03 04:09:09;;;;;;;0.40;0.40;;;15.60;99.90;;;;;;4941688;28;20036;-64
2023/08/03 04:11:35;;;;;;;0.50;0.50;;;15.50;99.90;;;;;;4950664;28;20101;-65
2023/08/03 04:14:00;;;;;;;0.57;0.40;;;15.50;99.90;;;;;;4941972;28;20031;-65
2023/08/03 04:16:26;;;;;;;2.40;0.60;;;15.50;99.90;;;;;;4945551;28;20034;-64
2023/08/03 04:18:51;;;;;;;0.40;0.40;;;15.50;99.90;;;;;;4939575;29;20039;-65
2023/08/03 04:21:17;;;;;;;1.42;0.60;;;15.40;99.90;;;;;;4947357;28;20528;-65
2023/08/03 04:23:42;;;;;;;0.95;0.50;;;15.40;99.90;;;;;;4941546;29;21915;-65
2023/08/03 04:26:08;;;;;;;0.73;0.73;;;15.40;99.90;;;;;;4962169;28;20032;-65
2023/08/03 04:28:34;;;;;;;0.93;0.40;;;15.40;99.90;;;;;;4943198;29;20042;-65
2023/08/03 04:30:59;;;;;;;0.32;0.30;;;15.40;99.90;;;;;;4948947;28;20063;-65
2023/08/03 04:33:25;;;;;;;1.15;0.70;;;15.40;99.90;;;;;;4956787;28;20047;-64
2023/08/03 04:35:51;;;;;;;0.80;0.40;;;15.30;99.90;;;;;;4952658;28;20057;-64
2023/08/03 04:38:16;;;;;;;3.30;0.50;;;15.40;99.90;;;;;;4939034;29;20034;-65
2023/08/03 04:40:42;;;;;;;0.50;0.50;;;15.40;99.90;;;;;;4949399;28;20054;-64
2023/08/03 04:43:07;;;;;;;0.57;0.40;;;15.40;99.90;;;;;;4946077;28;20106;-65
2023/08/03 04:45:33;;;;;;;1.20;0.40;;;15.40;99.90;;;;;;4938231;28;20029;-65
2023/08/03 04:47:59;;;;;;;3.42;0.60;;;15.40;99.90;;;;;;4938628;29;20442;-64
2023/08/03 04:50:24;;;;;;;2.17;0.40;;;15.30;99.90;;;;;;4942463;29;20034;-65
2023/08/03 04:52:50;;;;;;;5.95;0.43;;;15.30;99.90;;;;;;4940737;28;20046;-64
2023/08/03 04:55:15;;;;;;;3.60;0.50;;;15.30;99.90;;;;;;4927294;28;20138;-64
2023/08/03 04:57:41;;;;;;;0.70;0.60;;;15.30;99.90;;;;;;4948934;28;20028;-65
2023/08/03 05:00:07;;;;;;;3.80;0.43;;;15.40;99.90;;;;;;4949503;29;20519;-65
2023/08/03 05:02:32;;;;;;;0.55;0.50;;;15.40;99.90;;;;;;4949081;28;20425;-65
2023/08/03 05:04:58;;;;;;;2.50;0.50;;;15.40;99.90;;;;;;4948686;29;20082;-64
2023/08/03 05:07:23;;;;;;;0.40;0.40;;;15.40;99.90;;;;;;4952632;28;20540;-64
2023/08/03 05:09:49;;;;;;;5.13;0.77;;;15.40;99.90;;;;;;4942721;29;20131;-64
2023/08/03 05:12:15;;;;;;;6.93;0.47;;;15.50;99.90;;;;;;4954217;28;20034;-64
2023/08/03 05:14:40;;;;;;;0.50;0.50;;;15.50;99.90;;;;;;4953261;29;20106;-64
2023/08/03 05:17:06;;;;;;;4.30;0.50;;;15.60;99.90;;;;;;4951759;28;20027;-65
2023/08/03 05:19:31;;;;;;;0.35;0.32;;;15.60;99.90;;;;;;4952365;29;20031;-65
2023/08/03 05:21:58;;;;;;;0.50;0.40;;;15.60;99.90;;;;;;4950134;28;20093;-64
2023/08/03 05:24:24;;;;;;;0.40;0.40;;;15.70;99.90;;;;;;4952513;28;20035;-64
2023/08/03 05:26:50;;;;;;;0.75;0.40;;;15.70;99.90;;;;;;4945188;28;20023;-64
2023/08/03 05:29:15;;;;;;;0.98;0.43;;;15.70;99.90;;;;;;4947511;29;20081;-65
2023/08/03 05:31:41;;;;;;;0.55;0.50;;;15.70;99.90;;;;;;4949866;28;20023;-65
2023/08/03 05:34:07;;;;;;;1.40;0.60;;;15.70;99.90;;;;;;4951655;29;20182;-65
2023/08/03 05:36:32;;;;;;;2.22;0.68;;;15.70;99.90;;;;;;4952190;28;20046;-64
2023/08/03 05:38:58;;;;;;;2.25;0.50;;;15.60;99.90;;;;;;4937309;29;20059;-65
2023/08/03 05:41:25;;;;;;;1.02;0.40;;;15.60;99.90;;;;;;4948790;28;20027;-64
2023/08/03 05:43:51;;;;;;;3.40;0.43;;;15.70;99.90;;;;;;4950262;29;20374;-65
2023/08/03 05:46:17;;;;;;;0.40;0.40;;;15.70;99.90;;;;;;4949735;28;20038;-65
2023/08/03 05:48:43;;;;;;;1.90;1.30;;;15.70;99.90;;;;;;4948863;28;20401;-65
2023/08/03 05:51:11;;;;;;;0.68;0.65;;;15.70;99.90;;;;;;4949464;28;20030;-65
2023/08/03 05:53:36;;;;;;;0.63;0.50;;;15.90;99.90;;;;;;4953879;28;20035;-65
2023/08/03 05:56:08;;;;;;;0.30;0.30;;;16.00;99.90;;;;;;4928448;28;20150;-64
2023/08/03 05:58:36;;;;;;;0.40;0.40;;;16.10;99.90;;;;;;4941165;29;20444;-64
2023/08/03 06:01:02;;;;;;;0.30;0.30;;;16.40;99.90;;;;;;4941520;29;20031;-65
2023/08/03 06:03:31;;;;;;;2.55;0.40;;;16.50;99.90;;;;;;4942176;28;20046;-64
2023/08/03 06:05:59;;;;;;;2.67;0.30;;;16.60;99.90;;;;;;4945845;29;20089;-65
2023/08/03 06:08:26;;;;;;;1.65;0.47;;;16.70;99.90;;;;;;4944467;28;20042;-65
2023/08/03 06:10:54;;;;;;;0.68;0.60;;;16.80;99.90;;;;;;4944053;29;20043;-65
2023/08/03 06:13:24;;;;;;;0.63;0.50;;;16.80;99.90;;;;;;4945177;28;20435;-65
2023/08/03 06:15:50;;;;;;;1.75;0.45;;;16.80;99.90;;;;;;4944223;29;20031;-65
2023/08/03 06:18:19;;;;;;;1.23;0.40;;;16.90;99.90;;;;;;4941724;28;20028;-65
2023/08/03 06:20:47;;;;;;;2.53;0.47;;;16.80;99.90;;;;;;4946148;29;20035;-65
2023/08/03 06:23:18;;;;;;;0.35;0.35;;;16.70;99.90;;;;;;4939021;28;20054;-65
2023/08/03 06:25:45;;;;;;;1.55;0.38;;;16.70;99.90;;;;;;4938600;29;20451;-65
2023/08/03 06:28:17;;;;;;;0.20;0.20;;;16.60;99.90;;;;;;4947415;28;20019;-65
2023/08/03 06:30:45;;;;;;;0.55;0.45;;;16.60;99.90;;;;;;4943421;28;20102;-65
2023/08/03 06:33:13;;;;;;;0.98;0.90;;;16.40;99.90;;;;;;4955540;28;20395;-65
2023/08/03 06:35:44;;;;;;;0.60;0.40;;;16.40;99.90;;;;;;4952224;28;20086;-65
2023/08/03 06:38:12;;;;;;;1.75;0.40;;;16.30;99.90;;;;;;4948909;28;20033;-65
2023/08/03 06:40:40;;;;;;;0.32;0.32;;;16.30;99.90;;;;;;4949508;29;20061;-65
2023/08/03 06:43:06;;;;;;;0.68;0.28;;;16.20;99.90;;;;;;4953888;28;20031;-65
2023/08/03 06:45:33;;;;;;;1.75;0.45;;;16.20;99.90;;;;;;4949406;29;20508;-65
2023/08/03 06:47:59;;;;;;;0.43;0.30;;;16.10;99.90;;;;;;4957136;28;20023;-65
2023/08/03 06:50:32;;;;;;;0.20;0.20;;;16.10;99.90;;;;;;4951333;28;20493;-65
2023/08/03 06:52:59;;;;;;;0.80;0.20;;;16.10;99.90;;;;;;4947004;28;20063;-64
2023/08/03 06:55:25;;;;;;;0.20;0.20;;;16.10;99.90;;;;;;4954150;28;20505;-65
2023/08/03 06:57:52;;;;;;;2.05;0.50;;;16.10;99.90;;;;;;4940185;28;20095;-65
2023/08/03 07:00:18;;;;;;;0.50;0.40;;;16.10;99.90;;;;;;4953034;28;20035;-65
2023/08/03 07:02:45;;;;;;;1.63;0.55;;;16.10;99.90;;;;;;4955985;28;20026;-65
2023/08/03 07:05:11;;;;;;;0.75;0.45;;;16.10;99.90;;;;;;4953366;28;20554;-65
2023/08/03 07:07:36;;;;;;;1.35;0.30;;;16.10;99.90;;;;;;4948966;28;20019;-65
2023/08/03 07:10:02;;;;;;;0.63;0.63;;;16.20;99.90;;;;;;4951434;29;20020;-65
2023/08/03 07:12:28;;;;;;;2.17;0.40;;;16.20;99.90;;;;;;4971466;28;20038;-65
2023/08/03 07:14:55;;;;;;;1.83;0.70;;;16.20;99.90;;;;;;4950086;28;20031;-65
2023/08/03 07:17:21;;;;;;;2.55;0.38;;;16.20;99.90;;;;;;4954618;28;20123;-65
2023/08/03 07:19:54;;;;;;;0.65;0.47;;;16.20;99.90;;;;;;4954009;28;20525;-65
2023/08/03 07:22:20;;;;;;;2.15;1.40;;;16.20;99.90;;;;;;4953721;28;20043;-64
2023/08/03 07:24:45;;;;;;;0.50;0.40;;;16.20;99.90;;;;;;4949047;29;20039;-64
2023/08/03 07:27:11;;;;;;;1.15;0.80;;;16.30;99.90;;;;;;4949450;28;20031;-65
2023/08/03 07:29:37;;;;;;;0.40;0.40;;;16.30;99.90;;;;;;4954946;28;20034;-65
2023/08/03 07:32:03;;;;;;;0.68;0.68;;;16.20;99.90;;;;;;4952309;28;20085;-65
2023/08/03 07:34:29;;;;;;;1.25;1.00;;;16.20;99.90;;;;;;4951285;29;20378;-64
2023/08/03 07:36:56;;;;;;;2.00;0.60;;;16.20;99.90;;;;;;4950017;28;20070;-65
2023/08/03 07:39:23;;;;;;;1.52;0.52;;;16.20;99.90;;;;;;4949109;29;20047;-65
2023/08/03 07:41:49;;;;;;;3.22;0.50;;;16.20;99.90;;;;;;4948832;28;20074;-65
2023/08/03 07:44:18;;;;;;;1.52;0.65;;;16.20;99.90;;;;;;4939511;28;20030;-65
2023/08/03 07:46:45;;;;;;;0.63;0.63;;;16.20;99.90;;;;;;4944512;29;20035;-65
2023/08/03 07:49:10;;;;;;;1.67;0.45;;;16.20;99.90;;;;;;4945471;28;20035;-64
2023/08/03 07:51:37;;;;;;;0.60;0.60;;;16.20;99.90;;;;;;4944644;29;20586;-65
2023/08/03 07:54:02;;;;;;;0.68;0.50;;;16.30;99.90;;;;;;4949816;28;20038;-65
2023/08/03 07:56:28;;;;;;;2.05;0.88;;;16.30;99.90;;;;;;4933184;28;20047;-66
2023/08/03 07:58:54;;;;;;;0.80;0.60;;;16.30;99.90;;;;;;4962791;28;20027;-65
2023/08/03 08:01:20;;;;;;;1.23;0.60;;;16.30;99.90;;;;;;4951227;28;20035;-65
2023/08/03 08:03:46;;;;;;;0.55;0.50;;;16.30;99.90;;;;;;4951725;28;20031;-65
2023/08/03 08:06:14;;;;;;;0.60;0.50;;;16.40;99.90;;;;;;4953558;29;20415;-64
2023/08/03 08:08:39;;;;;;;2.80;0.57;;;16.40;99.90;;;;;;4948233;28;20031;-65
2023/08/03 08:11:05;;;;;;;1.17;0.60;;;16.50;99.90;;;;;;4949232;28;20544;-65
2023/08/03 08:13:32;;;;;;;1.20;1.10;;;16.60;99.90;;;;;;4953997;28;20571;-65
2023/08/03 08:16:02;;;;;;;0.52;0.52;;;16.70;99.90;;;;;;4953903;28;20110;-65
2023/08/03 08:18:28;;;;;;;0.63;0.52;;;16.70;99.90;;;;;;4954463;28;20039;-65
2023/08/03 08:21:02;;;;;;;0.35;0.32;;;16.70;99.90;;;;;;4954921;28;20019;-64
2023/08/03 08:23:28;;;;;;;0.57;0.45;;;16.80;99.90;;;;;;4954140;28;20023;-65
2023/08/03 08:25:53;;;;;;;0.65;0.47;;;16.80;99.90;;;;;;4954279;29;20098;-65
2023/08/03 08:28:20;;;;;;;1.90;0.47;;;16.80;99.90;;;;;;4946886;28;20031;-65
2023/08/03 08:30:46;;;;;;;1.08;0.50;;;16.80;99.90;;;;;;4952087;28;20042;-65
2023/08/03 08:33:14;;;;;;;1.85;0.40;;;16.80;99.90;;;;;;4951821;28;20027;-64
2023/08/03 08:35:40;;;;;;;1.27;0.60;;;16.80;99.90;;;;;;4954049;29;20110;-65
2023/08/03 08:38:08;;;;;;;3.00;0.35;;;16.80;99.90;;;;;;4952150;28;20529;-65
2023/08/03 08:40:35;;;;;;;2.17;0.70;;;16.80;99.90;;;;;;4959184;28;20034;-64
2023/08/03 08:43:01;;;;;;;1.13;0.50;;;16.70;99.90;;;;;;4942314;28;20035;-65
2023/08/03 08:45:26;;;;;;;0.55;0.50;;;16.80;99.90;;;;;;4945929;28;20082;-65
2023/08/03 08:47:52;;;;;;;0.52;0.50;;;16.90;99.90;;;;;;4935839;28;20040;-64
2023/08/03 08:50:17;;;;;;;0.75;0.60;;;16.90;99.90;;;;;;4948233;29;20106;-65
2023/08/03 08:52:44;;;;;;;0.40;0.40;;;16.90;99.90;;;;;;4950784;28;20019;-65
2023/08/03 08:55:14;;;;;;;1.35;0.45;;;16.80;99.90;;;;;;4951809;28;20071;-65
2023/08/03 08:57:40;;;;;;;1.13;0.40;;;16.90;99.90;;;;;;4933394;28;20042;-65
2023/08/03 09:00:07;;;;;;;2.22;0.43;;;16.80;99.90;;;;;;4953770;28;20030;-65
2023/08/03 09:02:33;;;;;;;3.15;0.60;;;16.90;99.90;;;;;;4952174;28;20038;-59
2023/08/03 09:05:18;;;;;;;0.80;0.55;;;16.90;99.90;;;;;;4953264;28;20489;-65
2023/08/03 09:07:45;;;;;;;1.05;0.65;;;16.90;99.90;;;;;;4947198;28;20071;-65
2023/08/03 09:10:11;;;;;;;3.28;1.85;;;16.90;99.90;;;;;;4955961;28;20039;-64
2023/08/03 09:12:38;;;;;;;1.70;1.25;;;17.00;99.90;;;;;;4951761;28;20378;-64
2023/08/03 09:15:05;;;;;;;0.60;0.45;;;17.10;99.90;;;;;;4954424;28;20166;-65
2023/08/03 09:17:32;;;;;;;0.82;0.70;;;17.30;99.90;;;;;;4954534;28;20031;-65
2023/08/03 09:19:58;;;;;;;0.40;0.40;;;17.40;99.90;;;;;;4955787;28;20112;-65
2023/08/03 09:22:25;;;;;;;0.60;0.60;;;17.40;99.90;;;;;;4958988;28;20035;-65
2023/08/03 09:25:08;;;;;;;0.90;0.40;;;17.40;99.90;;;;;;4955012;28;20034;-65
2023/08/03 09:27:46;;;;;;;1.27;0.82;;;17.40;99.90;;;;;;4949462;28;20027;-65
2023/08/03 09:30:12;;;;;;;0.57;0.57;;;17.50;99.90;;;;;;4950518;28;20109;-65
2023/08/03 09:32:38;;;;;;;0.77;0.40;;;17.40;99.90;;;;;;4952051;28;20067;-65
2023/08/03 09:35:16;;;;;;;1.30;0.60;;;17.40;99.90;;;;;;4955415;28;20489;-65
2023/08/03 09:37:42;;;;;;;1.08;0.98;;;17.30;99.90;;;;;;4951572;28;20027;-65
2023/08/03 09:40:09;;;;;;;1.50;0.35;;;17.20;99.90;;;;;;4941817;28;20031;-65
2023/08/03 09:42:37;;;;;;;0.40;0.40;;;17.10;99.90;;;;;;4950257;28;20031;-64
2023/08/03 09:45:04;;;;;;;0.82;0.52;;;17.10;99.90;;;;;;4950030;29;20023;-65
2023/08/03 09:47:31;;;;;;;4.25;0.73;;;17.10;99.90;;;;;;4951036;29;20027;-64
2023/08/03 09:49:57;;;;;;;1.05;0.40;;;17.10;99.90;;;;;;4957625;28;20031;-65
2023/08/03 09:52:26;;;;;;;0.30;0.30;;;17.20;99.90;;;;;;4948594;29;20063;-65
2023/08/03 09:55:06;;;;;;;0.63;0.40;;;17.30;99.90;;;;;;4949373;28;20370;-65
2023/08/03 09:57:38;;;;;;;1.10;0.90;;;17.30;99.90;;;;;;4932898;28;20407;-65
2023/08/03 10:00:06;;;;;;;1.83;1.05;;;17.30;99.90;;;;;;4970344;28;20050;-65
2023/08/03 10:02:39;;;;;;;2.40;0.93;;;17.40;99.90;;;;;;4946134;28;20548;-64
2023/08/03 10:05:09;;;;;;;1.17;0.50;;;17.40;99.90;;;;;;4938503;28;20079;-65
2023/08/03 10:07:42;;;;;;;0.52;0.40;;;17.60;99.90;;;;;;4962071;28;20639;-65
2023/08/03 10:10:10;;;;;;;0.50;0.50;;;17.40;99.90;;;;;;4950921;28;20031;-65
2023/08/03 10:12:44;;;;;;;0.30;0.30;;;17.30;99.90;;;;;;4949568;29;20090;-65
2023/08/03 10:15:10;;;;;;;;;;;17.40;99.90;;;;;;4944576;28;20031;-65
2023/08/03 10:17:37;;;;;;;2.03;0.40;;;17.50;99.90;;;;;;4945407;28;19961;-65
2023/08/03 10:20:04;;;;;;;0.68;0.50;;;17.90;99.90;;;;;;4946678;28;20408;-65
2023/08/03 10:22:30;;;;;;;0.90;0.60;;;18.20;99.90;;;;;;4956646;28;20035;-64
2023/08/03 10:25:18;;;;;;;0.88;0.20;;;18.40;99.90;;;;;;4943230;28;20545;-64
2023/08/03 10:28:11;;;;;;;0.82;0.63;;;18.50;99.90;;;;;;4940359;29;20497;-65
2023/08/03 10:31:14;;;;;;;0.70;0.40;;;18.70;99.90;;;;;;4949795;28;20691;-64
2023/08/03 10:33:46;;;;;;;0.40;0.40;;;18.90;99.90;;;;;;4946188;28;21226;-64
2023/08/03 10:36:35;;;;;;;2.20;0.50;;;19.10;99.90;;;;;;4948261;28;20093;-65
2023/08/03 10:39:11;;;;;;;1.17;0.30;;;19.10;99.90;;;;;;4948177;29;20031;-65
2023/08/03 10:41:44;;;;;;;0.57;0.30;;;19.10;99.90;;;;;;4948201;28;20069;-64
2023/08/03 10:44:12;;;;;;;1.65;0.30;;;19.20;99.90;;;;;;4952109;28;20073;-64
2023/08/03 10:47:20;;;;;;;0.20;0.20;;;19.30;99.90;;;;;;4951431;28;20062;-64
2023/08/03 10:49:50;;;;;;;1.55;0.30;;;19.50;99.90;;;;;;4947814;29;20027;-65
2023/08/03 10:52:24;;;;;;;2.10;0.40;;;19.90;99.90;;;;;;4950058;28;20413;-64
2023/08/03 10:54:50;;;;;;;0.30;0.20;;;20.10;99.90;;;;;;4951111;29;20027;-65
2023/08/03 10:57:25;;;;;;;0.38;0.22;;;20.30;99.90;;;;;;4938706;28;20051;-65
2023/08/03 10:59:58;;;;;;;0.60;0.40;;;20.30;99.90;;;;;;4949796;29;20027;-65
2023/08/03 11:02:30;;;;;;;0.30;0.30;;;20.50;99.90;;;;;;4943831;28;20043;-64
2023/08/03 11:04:57;;;;;;;1.55;0.45;;;20.70;99.90;;;;;;4944600;29;20035;-64
2023/08/03 11:07:27;;;;;;;2.33;0.52;;;20.80;99.90;;;;;;4941719;28;20023;-64
2023/08/03 11:09:54;;;;;;;1.92;0.57;;;21.20;99.90;;;;;;4945306;29;20027;-64
2023/08/03 11:12:22;;;;;;;1.30;0.57;;;21.60;99.90;;;;;;4947279;28;20057;-64
2023/08/03 11:14:52;;;;;;;0.70;0.30;;;21.80;99.90;;;;;;4941956;28;20159;-64
2023/08/03 11:17:24;;;;;;;0.28;0.20;;;21.70;99.90;;;;;;4949732;28;20050;-64
2023/08/03 11:19:51;;;;;;;0.88;0.40;;;21.70;99.90;;;;;;4937855;28;20128;-64
2023/08/03 11:22:17;;;;;;;2.83;0.70;;;21.40;99.90;;;;;;4963343;28;20022;-65
2023/08/03 11:24:44;;;;;;;1.05;0.47;;;21.40;99.90;;;;;;4949641;29;20077;-64
2023/08/03 11:27:12;;;;;;;0.95;0.47;;;21.30;99.90;;;;;;4953402;28;20114;-65
2023/08/03 11:29:38;;;;;;;1.00;0.40;;;21.30;99.90;;;;;;4943748;28;20034;-65
2023/08/03 11:32:05;;;;;;;2.40;0.45;;;21.30;99.90;;;;;;4945306;28;20482;-64
2023/08/03 11:34:32;;;;;;;1.48;0.50;;;21.40;99.90;;;;;;4948665;28;20437;-63
2023/08/03 11:36:57;;;;;;;1.85;0.57;;;21.30;99.90;;;;;;4945282;28;20437;-65
2023/08/03 11:39:23;;;;;;;0.65;0.40;;;21.10;99.90;;;;;;4950397;29;20031;-64
2023/08/03 11:41:51;;;;;;;2.00;0.60;;;21.00;99.90;;;;;;4937925;28;20018;-65
2023/08/03 11:44:21;;;;;;;3.60;0.60;;;20.90;99.90;;;;;;4953509;28;20031;-65
2023/08/03 11:46:49;;;;;;;2.40;0.70;;;20.70;99.90;;;;;;4942902;29;20046;-66
2023/08/03 11:49:15;;;;;;;2.28;0.70;;;20.60;99.90;;;;;;4945175;28;20110;-64
2023/08/03 11:51:41;;;;;;;3.55;1.13;;;20.30;99.90;;;;;;4941388;28;20122;-66
2023/08/03 11:54:12;;;;;;;1.20;0.63;;;20.20;99.90;;;;;;4946895;28;20035;-66
2023/08/03 11:56:38;;;;;;;3.10;0.70;;;20.40;99.90;;;;;;4945517;29;20023;-65
2023/08/03 11:59:09;;;;;;;0.55;0.55;;;20.50;99.90;;;;;;4958402;28;20043;-66
2023/08/03 12:01:46;;;;;;;2.22;0.38;;;20.60;99.90;;;;;;4939729;29;20098;-64
2023/08/03 12:04:12;;;;;;;4.18;1.05;;;20.40;99.90;;;;;;4947849;28;20485;-66
2023/08/03 12:06:47;;;;;;;1.60;0.60;;;20.30;99.90;;;;;;4949612;29;20098;-66
2023/08/03 12:09:28;;;;;;;5.63;0.63;;;20.20;99.90;;;;;;4952191;28;20457;-64
2023/08/03 12:12:04;;;;;;;3.00;0.88;;;20.20;99.90;;;;;;4945297;29;20036;-66
2023/08/03 12:14:30;;;;;;;7.18;0.70;;;20.30;99.90;;;;;;4949253;28;20102;-66
2023/08/03 12:16:55;;;;;;;1.60;0.70;;;20.50;99.90;;;;;;4947306;28;20111;-66
2023/08/03 12:19:21;;;;;;;3.75;0.70;;;20.60;99.90;;;;;;4954903;28;20062;-66
2023/08/03 12:21:47;;;;;;;4.45;0.80;;;20.60;99.90;;;;;;4947780;29;20030;-66
2023/08/03 12:24:13;;;;;;;1.58;0.57;;;20.70;99.90;;;;;;4950580;28;20037;-66
2023/08/03 12:26:42;;;;;;;5.10;0.93;;;20.70;99.90;;;;;;4948823;28;20039;-64
2023/08/03 12:29:08;;;;;;;5.97;0.80;;;20.60;99.90;;;;;;4965863;28;20037;-64
2023/08/03 12:31:33;;;;;;;3.38;0.80;;;20.50;99.90;;;;;;4948019;29;20035;-64
2023/08/03 12:33:59;;;;;;;2.20;0.60;;;20.30;99.90;;;;;;4950689;28;21393;-66
2023/08/03 12:36:26;;;;;;;3.55;1.30;;;20.10;99.90;;;;;;4951944;29;20035;-65
2023/08/03 12:38:52;;;;;;;1.42;0.80;;;19.80;99.90;;;;;;4951867;28;20520;-66
2023/08/03 12:41:19;;;;;;;5.85;1.17;;;19.80;99.90;;;;;;4950779;29;20034;-66
2023/08/03 12:43:45;;;;;;;3.40;1.30;;;20.00;99.90;;;;;;4940215;28;20058;-64
2023/08/03 12:46:11;;;;;;;3.15;1.17;;;20.10;99.90;;;;;;4948461;28;20027;-64
2023/08/03 12:48:36;;;;;;;5.22;2.22;;;20.20;99.90;;;;;;4942833;28;20406;-64